Time;durP1;ratioP1;P1;durP2;ratioP2;P2;SDS_P1;SDS_P2;PMS_P1;PMS_P2;Temp;Humidity;BMP_temperature;BMP_pressure;BME280_temperature;BME280_humidity;BME280_pressure;Samples;Min_cycle;Max_cycle;Signal;HPM_P1;HPM_P2
2023/10/18 00:02:20;;;;;;;11.57;10.13;;;10.00;99.90;;;;;;4962306;28;20345;-72
2023/10/18 00:04:46;;;;;;;13.27;9.60;;;10.00;99.90;;;;;;4960503;28;20552;-72
2023/10/18 00:07:13;;;;;;;13.33;10.20;;;10.00;99.90;;;;;;4963919;28;20705;-72
2023/10/18 00:09:45;;;;;;;11.63;10.00;;;10.00;99.90;;;;;;4961023;28;20772;-72
2023/10/18 00:12:12;;;;;;;11.07;8.77;;;10.00;99.90;;;;;;4961177;28;20454;-72
2023/10/18 00:14:39;;;;;;;11.67;9.50;;;10.00;99.90;;;;;;4964553;28;20845;-72
2023/10/18 00:17:05;;;;;;;12.30;10.00;;;10.00;99.90;;;;;;4962078;28;20801;-72
2023/10/18 00:19:31;;;;;;;11.20;8.90;;;10.00;99.90;;;;;;4962929;28;20469;-72
2023/10/18 00:21:57;;;;;;;11.20;9.90;;;10.00;99.90;;;;;;4958170;28;20183;-71
2023/10/18 00:24:23;;;;;;;12.60;9.50;;;10.00;99.90;;;;;;4957976;28;20433;-71
2023/10/18 00:26:49;;;;;;;12.63;10.27;;;10.00;99.90;;;;;;4960780;28;20556;-71
2023/10/18 00:29:15;;;;;;;10.17;9.13;;;10.00;99.90;;;;;;4962955;28;20198;-71
2023/10/18 00:31:40;;;;;;;11.10;9.60;;;10.00;99.90;;;;;;4960169;28;21073;-73
2023/10/18 00:34:06;;;;;;;11.37;9.90;;;9.90;99.90;;;;;;4968340;28;20289;-72
2023/10/18 00:36:32;;;;;;;15.10;10.90;;;9.90;99.90;;;;;;4972242;28;20492;-72
2023/10/18 00:38:57;;;;;;;15.03;11.00;;;9.90;99.90;;;;;;4966674;28;20256;-72
2023/10/18 00:41:32;;;;;;;13.13;9.80;;;9.90;99.90;;;;;;4966393;28;20186;-72
2023/10/18 00:44:00;;;;;;;14.40;10.90;;;9.90;99.90;;;;;;4969554;28;20236;-72
2023/10/18 00:46:28;;;;;;;16.13;10.70;;;9.90;99.90;;;;;;4970641;28;20425;-71
2023/10/18 00:48:54;;;;;;;12.37;11.00;;;9.80;99.90;;;;;;4965272;28;20654;-71
2023/10/18 00:51:21;;;;;;;16.30;10.90;;;9.80;99.90;;;;;;4955198;28;21066;-71
2023/10/18 00:53:48;;;;;;;13.50;10.80;;;9.80;99.90;;;;;;4960843;28;20767;-72
2023/10/18 00:56:15;;;;;;;10.97;9.80;;;9.80;99.90;;;;;;4962533;28;22342;-72
2023/10/18 00:58:48;;;;;;;11.57;10.07;;;9.80;99.90;;;;;;4963946;28;20542;-72
2023/10/18 01:01:14;;;;;;;15.13;10.83;;;9.80;99.90;;;;;;4963164;28;20428;-72
2023/10/18 01:03:48;;;;;;;11.30;10.10;;;9.80;99.90;;;;;;4958864;28;20434;-72
2023/10/18 01:06:23;;;;;;;13.33;11.50;;;9.70;99.90;;;;;;4960440;28;20577;-72
2023/10/18 01:08:49;;;;;;;15.00;10.50;;;9.80;99.90;;;;;;4958120;28;20406;-72
2023/10/18 01:11:22;;;;;;;12.87;10.63;;;9.80;99.90;;;;;;4964857;28;20475;-72
2023/10/18 01:13:48;;;;;;;13.63;10.00;;;9.80;99.90;;;;;;4960429;28;20850;-70
2023/10/18 01:16:22;;;;;;;14.07;11.30;;;9.80;99.90;;;;;;4963233;28;20437;-70
2023/10/18 01:18:49;;;;;;;13.63;11.40;;;9.70;99.90;;;;;;4961408;28;20249;-70
2023/10/18 01:21:19;;;;;;;12.20;10.67;;;9.70;99.90;;;;;;4963373;28;20520;-71
2023/10/18 01:23:49;;;;;;;14.20;11.60;;;9.70;99.90;;;;;;4960610;28;21108;-71
2023/10/18 01:26:15;;;;;;;14.97;11.43;;;9.70;99.90;;;;;;4961878;28;20430;-71
2023/10/18 01:28:41;;;;;;;12.07;10.40;;;9.70;99.90;;;;;;4963520;28;20426;-70
2023/10/18 01:31:09;;;;;;;12.83;11.07;;;9.70;99.90;;;;;;4964619;28;20967;-71
2023/10/18 01:33:39;;;;;;;13.57;10.70;;;9.70;99.90;;;;;;4961929;28;20453;-71
2023/10/18 01:36:05;;;;;;;12.13;10.90;;;9.70;99.90;;;;;;4959405;28;21245;-71
2023/10/18 01:38:33;;;;;;;13.43;10.63;;;9.70;99.90;;;;;;4961926;28;20528;-71
2023/10/18 01:41:08;;;;;;;14.57;11.70;;;9.70;99.90;;;;;;4960744;28;20499;-71
2023/10/18 01:43:36;;;;;;;14.63;11.47;;;9.80;99.90;;;;;;4943514;28;20961;-71
2023/10/18 01:46:06;;;;;;;15.33;11.20;;;9.80;99.90;;;;;;4956546;28;20466;-71
2023/10/18 01:48:37;;;;;;;13.43;11.70;;;9.80;99.90;;;;;;4959835;28;20426;-70
2023/10/18 01:51:05;;;;;;;17.17;10.93;;;9.80;99.90;;;;;;4960141;28;20433;-71
2023/10/18 01:53:31;;;;;;;14.37;12.00;;;9.80;99.90;;;;;;4958595;28;20453;-71
2023/10/18 01:55:57;;;;;;;14.67;11.50;;;9.80;99.90;;;;;;4963027;28;20421;-71
2023/10/18 01:58:26;;;;;;;15.03;11.80;;;9.80;99.90;;;;;;4959245;28;20189;-71
2023/10/18 02:00:53;;;;;;;13.50;10.70;;;9.80;99.90;;;;;;4974268;28;20860;-71
2023/10/18 02:03:20;;;;;;;13.63;10.80;;;9.80;99.90;;;;;;4961688;28;20453;-71
2023/10/18 02:05:47;;;;;;;15.57;11.40;;;9.80;99.90;;;;;;4957636;28;20940;-71
2023/10/18 02:08:13;;;;;;;17.10;11.43;;;9.80;99.90;;;;;;4963224;28;20480;-72
2023/10/18 02:10:41;;;;;;;12.97;11.60;;;9.70;99.90;;;;;;4965622;28;20799;-71
2023/10/18 02:13:13;;;;;;;17.23;11.97;;;9.70;99.90;;;;;;4962532;28;20462;-72
2023/10/18 02:15:39;;;;;;;16.60;11.77;;;9.70;99.90;;;;;;4965279;28;20524;-72
2023/10/18 02:18:09;;;;;;;13.20;11.43;;;9.70;99.90;;;;;;4965628;28;20532;-71
2023/10/18 02:20:37;;;;;;;13.70;10.60;;;9.70;99.90;;;;;;4965132;28;20210;-71
2023/10/18 02:23:10;;;;;;;14.40;11.70;;;9.70;99.90;;;;;;4961906;28;20466;-72
2023/10/18 02:25:43;;;;;;;17.60;11.60;;;9.70;99.90;;;;;;4964263;28;20431;-71
2023/10/18 02:28:22;;;;;;;16.40;12.00;;;9.70;99.90;;;;;;4963055;28;20837;-71
2023/10/18 02:30:56;;;;;;;14.87;11.63;;;9.70;99.90;;;;;;4965011;28;20429;-71
2023/10/18 02:33:26;;;;;;;15.17;10.70;;;9.70;99.90;;;;;;4961765;28;20539;-71
2023/10/18 02:35:57;;;;;;;15.97;11.13;;;9.70;99.90;;;;;;4962702;28;20540;-71
2023/10/18 02:38:23;;;;;;;14.70;11.30;;;9.60;99.90;;;;;;4962189;28;20453;-71
2023/10/18 02:40:49;;;;;;;13.90;11.70;;;9.60;99.90;;;;;;4965456;28;20430;-71
2023/10/18 02:43:15;;;;;;;16.07;12.83;;;9.60;99.90;;;;;;4963980;28;20449;-71
2023/10/18 02:45:54;;;;;;;13.70;11.63;;;9.60;99.90;;;;;;4964433;28;20182;-71
2023/10/18 02:48:23;;;;;;;12.30;10.47;;;9.60;99.90;;;;;;4962485;28;20178;-71
2023/10/18 02:50:54;;;;;;;12.30;11.00;;;9.50;99.90;;;;;;4968132;28;20455;-71
2023/10/18 02:53:20;;;;;;;17.37;12.70;;;9.60;99.90;;;;;;4962944;28;20460;-71
2023/10/18 02:55:55;;;;;;;15.00;12.40;;;9.50;99.90;;;;;;4966363;28;20422;-71
2023/10/18 02:58:21;;;;;;;13.83;12.23;;;9.50;99.90;;;;;;4963494;28;20190;-70
2023/10/18 03:00:47;;;;;;;13.90;11.63;;;9.50;99.90;;;;;;4965673;28;20470;-71
2023/10/18 03:03:12;;;;;;;14.53;11.27;;;9.50;99.90;;;;;;4961823;28;20452;-71
2023/10/18 03:05:41;;;;;;;15.73;11.37;;;9.40;99.90;;;;;;4965901;28;20195;-71
2023/10/18 03:08:08;;;;;;;15.63;12.70;;;9.50;99.90;;;;;;4964528;28;20274;-71
2023/10/18 03:10:46;;;;;;;13.10;11.20;;;9.50;99.90;;;;;;4965454;28;20552;-71
2023/10/18 03:13:13;;;;;;;14.80;12.50;;;9.50;99.90;;;;;;4957037;28;20540;-71
2023/10/18 03:16:03;;;;;;;16.33;12.40;;;9.50;99.90;;;;;;4968903;28;20731;-71
2023/10/18 03:18:29;;;;;;;19.83;14.33;;;9.40;99.90;;;;;;4968965;28;20948;-71
2023/10/18 03:20:56;;;;;;;15.57;12.90;;;9.40;99.90;;;;;;4969213;28;20432;-70
2023/10/18 03:23:22;;;;;;;16.40;12.37;;;9.40;99.90;;;;;;4964127;28;20306;-70
2023/10/18 03:25:59;;;;;;;17.93;16.03;;;9.40;99.90;;;;;;4968282;28;20479;-71
2023/10/18 03:28:25;;;;;;;18.90;13.43;;;9.40;99.90;;;;;;4957371;28;20438;-71
2023/10/18 03:30:51;;;;;;;13.90;12.37;;;9.40;99.90;;;;;;4964832;28;20422;-71
2023/10/18 03:33:19;;;;;;;15.50;11.57;;;9.40;99.90;;;;;;4962266;28;20453;-71
2023/10/18 03:35:49;;;;;;;14.77;12.70;;;9.40;99.90;;;;;;4964217;28;20835;-71
2023/10/18 03:38:17;;;;;;;15.20;12.57;;;9.40;99.90;;;;;;4964854;28;20434;-71
2023/10/18 03:40:56;;;;;;;13.53;12.10;;;9.40;99.90;;;;;;4963956;28;20496;-71
2023/10/18 03:43:26;;;;;;;15.43;12.10;;;9.40;99.90;;;;;;4960408;28;21195;-71
2023/10/18 03:48:54;;;;;;;15.50;11.90;;;9.40;99.90;;;;;;4960601;28;20519;-71
2023/10/18 03:51:23;;;;;;;15.57;11.33;;;9.40;99.90;;;;;;4967627;28;20440;-71
2023/10/18 03:53:55;;;;;;;19.03;12.93;;;9.40;99.90;;;;;;4963426;28;20481;-71
2023/10/18 03:56:22;;;;;;;14.70;12.00;;;9.30;99.90;;;;;;4964411;28;20428;-71
2023/10/18 03:58:49;;;;;;;14.70;12.77;;;9.30;99.90;;;;;;4961775;28;20479;-71
2023/10/18 04:01:21;;;;;;;16.47;13.83;;;9.30;99.90;;;;;;4962853;28;20529;-71
2023/10/18 04:03:49;;;;;;;16.90;12.67;;;9.30;99.90;;;;;;4966169;28;20935;-72
2023/10/18 04:06:21;;;;;;;14.43;12.47;;;9.30;99.90;;;;;;4961968;28;20434;-72
2023/10/18 04:08:47;;;;;;;13.37;11.60;;;9.20;99.90;;;;;;4964027;28;20449;-72
2023/10/18 04:11:13;;;;;;;15.60;13.47;;;9.20;99.90;;;;;;4966681;28;20422;-71
2023/10/18 04:13:39;;;;;;;15.40;11.80;;;9.20;99.90;;;;;;4964024;28;20841;-72
2023/10/18 04:16:10;;;;;;;15.90;12.57;;;9.20;99.90;;;;;;4964393;28;20570;-71
2023/10/18 04:18:36;;;;;;;15.17;11.73;;;9.20;99.90;;;;;;4959543;28;20440;-71
2023/10/18 04:21:15;;;;;;;15.77;12.60;;;9.20;99.90;;;;;;4960186;28;20466;-71
2023/10/18 04:23:46;;;;;;;17.97;11.93;;;9.10;99.90;;;;;;4960687;28;20430;-70
2023/10/18 04:26:18;;;;;;;17.40;13.47;;;9.10;99.90;;;;;;4961182;28;20455;-71
2023/10/18 04:28:45;;;;;;;16.20;13.00;;;9.10;99.90;;;;;;4961930;28;20426;-71
2023/10/18 04:31:14;;;;;;;17.63;13.90;;;9.10;99.90;;;;;;4960247;28;20999;-71
2023/10/18 04:33:41;;;;;;;15.43;12.63;;;9.00;99.90;;;;;;4959915;28;20856;-71
2023/10/18 04:36:11;;;;;;;16.60;13.50;;;9.10;99.90;;;;;;4961062;28;20544;-71
2023/10/18 04:38:44;;;;;;;17.63;13.13;;;9.00;99.90;;;;;;4961631;28;20445;-71
2023/10/18 04:43:52;;;;;;;17.00;13.03;;;9.10;99.90;;;;;;4961577;28;20465;-71
2023/10/18 04:46:27;;;;;;;18.03;13.93;;;9.00;99.90;;;;;;4978962;28;20964;-71
2023/10/18 04:54:00;;;;;;;16.80;12.93;;;9.00;99.90;;;;;;4962720;28;20611;-71
2023/10/18 04:56:37;;;;;;;16.73;14.03;;;9.00;99.90;;;;;;4961740;28;20414;-72
2023/10/18 05:04:24;;;;;;;16.40;14.37;;;9.00;99.90;;;;;;4958375;28;20518;-70
2023/10/18 05:06:56;;;;;;;17.80;14.07;;;9.00;99.90;;;;;;4960445;28;20457;-70
2023/10/18 05:09:41;;;;;;;17.77;14.33;;;9.00;99.90;;;;;;4958346;28;20475;-71
2023/10/18 05:12:27;;;;;;;16.60;14.10;;;9.00;99.90;;;;;;4963922;28;20456;-71
2023/10/18 05:17:28;;;;;;;15.37;12.40;;;9.00;99.90;;;;;;4963791;28;20418;-71
2023/10/18 05:19:56;;;;;;;16.83;13.97;;;9.10;99.90;;;;;;4965406;28;20461;-72
2023/10/18 05:22:28;;;;;;;19.00;14.57;;;9.10;99.90;;;;;;4963479;28;20455;-71
2023/10/18 05:27:59;;;;;;;17.87;14.40;;;9.10;99.90;;;;;;4957674;28;20418;-71
2023/10/18 05:33:15;;;;;;;19.03;14.57;;;9.10;99.90;;;;;;4955807;28;20460;-71
2023/10/18 05:35:43;;;;;;;18.43;13.80;;;9.10;99.90;;;;;;4962639;28;20514;-71
2023/10/18 05:43:04;;;;;;;24.10;16.17;;;9.10;99.90;;;;;;4961550;28;21537;-71
2023/10/18 05:45:33;;;;;;;19.03;14.73;;;9.20;99.90;;;;;;4966058;28;20306;-71
2023/10/18 05:48:03;;;;;;;16.47;14.40;;;9.20;99.90;;;;;;4967955;28;20438;-73
2023/10/18 05:50:31;;;;;;;16.70;14.77;;;9.20;99.90;;;;;;4966996;28;20414;-71
2023/10/18 05:53:00;;;;;;;22.87;16.37;;;9.20;99.90;;;;;;4968483;28;20457;-71
2023/10/18 05:55:30;;;;;;;19.03;14.80;;;9.30;99.90;;;;;;4966637;28;20426;-71
2023/10/18 05:57:56;;;;;;;18.93;13.57;;;9.30;99.90;;;;;;4966610;28;20421;-71
2023/10/18 06:00:22;;;;;;;16.57;14.10;;;9.30;99.90;;;;;;4966081;28;20473;-71
2023/10/18 06:02:48;;;;;;;19.10;14.70;;;9.30;99.90;;;;;;4965803;28;20971;-71
2023/10/18 06:05:13;;;;;;;22.43;15.40;;;9.30;99.90;;;;;;4964985;28;20190;-71
2023/10/18 06:07:41;;;;;;;22.67;14.83;;;9.30;99.90;;;;;;4963637;28;20179;-71
2023/10/18 06:10:13;;;;;;;18.37;14.33;;;9.40;99.90;;;;;;4968213;28;20186;-71
2023/10/18 06:12:41;;;;;;;20.03;15.00;;;9.40;99.90;;;;;;4966666;28;20828;-71
2023/10/18 06:15:10;;;;;;;21.20;15.00;;;9.40;99.90;;;;;;4965351;28;20446;-71
2023/10/18 06:17:53;;;;;;;20.23;14.60;;;9.40;99.90;;;;;;4966912;28;20421;-71
2023/10/18 06:20:28;;;;;;;24.20;15.33;;;9.40;99.90;;;;;;4964555;28;20472;-71
2023/10/18 06:23:28;;;;;;;18.60;14.67;;;9.40;99.90;;;;;;4962325;28;20979;-71
2023/10/18 06:25:57;;;;;;;18.80;13.50;;;9.40;99.90;;;;;;4964569;28;20532;-71
2023/10/18 06:28:24;;;;;;;17.83;13.83;;;9.50;99.90;;;;;;4964885;28;20425;-71
2023/10/18 06:30:52;;;;;;;20.30;16.20;;;9.50;99.90;;;;;;4967797;28;20479;-71
2023/10/18 06:33:21;;;;;;;21.80;16.13;;;9.50;99.90;;;;;;4963940;28;20707;-71
2023/10/18 06:35:53;;;;;;;20.47;15.83;;;9.50;99.90;;;;;;4965285;28;20486;-71
2023/10/18 06:38:22;;;;;;;18.73;14.67;;;9.50;99.90;;;;;;4965259;28;20422;-71
2023/10/18 06:40:53;;;;;;;18.53;14.90;;;9.50;99.90;;;;;;4967351;28;20453;-71
2023/10/18 06:43:22;;;;;;;17.63;13.40;;;9.60;99.90;;;;;;4958479;28;20458;-71
2023/10/18 06:45:50;;;;;;;17.13;15.00;;;9.60;99.90;;;;;;4966179;28;20437;-71
2023/10/18 06:48:16;;;;;;;18.93;14.13;;;9.70;99.90;;;;;;4963076;28;20679;-71
2023/10/18 06:50:46;;;;;;;16.37;13.17;;;9.70;99.90;;;;;;4968342;28;20483;-71
2023/10/18 06:53:20;;;;;;;17.07;14.00;;;9.70;99.90;;;;;;4963043;28;20939;-71
2023/10/18 06:55:59;;;;;;;17.47;14.23;;;9.70;99.90;;;;;;4966354;28;20505;-72
2023/10/18 07:00:53;;;;;;;19.23;12.93;;;9.80;99.90;;;;;;4964200;28;20565;-72
2023/10/18 07:03:27;;;;;;;15.67;13.43;;;9.80;99.90;;;;;;4965989;28;20208;-72
2023/10/18 07:05:56;;;;;;;18.80;13.90;;;9.80;99.90;;;;;;4960878;28;20458;-72
2023/10/18 07:08:29;;;;;;;18.40;14.73;;;9.90;99.90;;;;;;4967171;28;20418;-72
2023/10/18 07:10:55;;;;;;;17.77;14.60;;;10.00;99.90;;;;;;4967186;28;20422;-72
2023/10/18 07:13:32;;;;;;;16.00;14.30;;;10.00;99.90;;;;;;4964421;28;20462;-72
2023/10/18 07:16:06;;;;;;;17.83;14.30;;;10.00;99.90;;;;;;4963506;28;20442;-72
2023/10/18 07:18:35;;;;;;;17.87;14.43;;;10.10;99.90;;;;;;4965168;28;20422;-72
2023/10/18 07:21:08;;;;;;;16.40;13.97;;;10.10;99.90;;;;;;4966474;28;20453;-72
2023/10/18 07:23:36;;;;;;;19.47;14.60;;;10.20;99.90;;;;;;4965408;28;20565;-72
2023/10/18 07:26:13;;;;;;;16.37;13.63;;;10.30;99.90;;;;;;4966466;28;20425;-72
2023/10/18 07:28:40;;;;;;;17.97;14.40;;;10.30;99.90;;;;;;4963577;28;20425;-72
2023/10/18 07:31:10;;;;;;;17.77;14.20;;;10.40;99.90;;;;;;4966743;28;20434;-72
2023/10/18 07:33:40;;;;;;;18.90;14.47;;;10.40;99.90;;;;;;4964933;28;20438;-73
2023/10/18 07:36:07;;;;;;;18.77;14.50;;;10.50;99.90;;;;;;4965327;28;20752;-71
2023/10/18 07:38:33;;;;;;;19.43;14.43;;;10.50;99.90;;;;;;4964564;28;20861;-71
2023/10/18 07:40:59;;;;;;;16.90;14.87;;;10.60;99.90;;;;;;4966201;28;20722;-71
2023/10/18 07:43:26;;;;;;;20.53;14.60;;;10.60;99.90;;;;;;4961699;28;20190;-72
2023/10/18 07:45:53;;;;;;;20.53;13.73;;;10.70;99.90;;;;;;4963837;28;20421;-71
2023/10/18 07:48:19;;;;;;;15.80;13.50;;;10.80;99.90;;;;;;4963835;28;20442;-72
2023/10/18 07:50:50;;;;;;;18.13;14.70;;;10.80;99.90;;;;;;4966278;28;20437;-71
2023/10/18 07:53:20;;;;;;;18.67;14.67;;;10.90;99.90;;;;;;4961475;28;20461;-71
2023/10/18 07:55:53;;;;;;;18.73;14.83;;;10.80;99.90;;;;;;4966465;28;20441;-72
2023/10/18 07:58:22;;;;;;;17.97;14.33;;;10.90;99.90;;;;;;4961173;28;21187;-72
2023/10/18 08:01:51;;;;;;;18.50;14.70;;;10.90;99.90;;;;;;4971518;28;20512;-72
2023/10/18 08:03:43;;;;;;;16.67;14.50;;;10.90;99.90;;;;;;4958057;28;21077;-72
2023/10/18 08:06:26;;;;;;;17.63;14.27;;;10.80;99.90;;;;;;4963641;28;20441;-71
2023/10/18 08:08:52;;;;;;;15.40;13.27;;;10.80;99.90;;;;;;4966580;28;20526;-71
2023/10/18 08:11:17;;;;;;;18.20;14.73;;;10.80;99.90;;;;;;4973423;28;20426;-71
2023/10/18 08:13:45;;;;;;;16.10;13.90;;;10.90;99.90;;;;;;4962451;28;20457;-71
2023/10/18 08:16:19;;;;;;;17.97;15.80;;;10.90;99.90;;;;;;4965080;28;20540;-71
2023/10/18 08:18:53;;;;;;;16.57;14.70;;;10.90;99.90;;;;;;4963097;28;20410;-72
2023/10/18 08:24:08;;;;;;;18.87;13.67;;;11.00;99.90;;;;;;4964359;28;20971;-72
2023/10/18 08:26:45;;;;;;;18.40;14.80;;;11.00;99.90;;;;;;4964881;28;20410;-72
2023/10/18 08:29:12;;;;;;;19.20;14.40;;;11.00;99.90;;;;;;4963341;28;20410;-72
2023/10/18 08:31:38;;;;;;;18.07;14.20;;;11.10;99.90;;;;;;4963269;28;20417;-72
2023/10/18 08:34:15;;;;;;;15.93;14.17;;;11.20;99.90;;;;;;4955638;28;20451;-72
2023/10/18 08:36:43;;;;;;;18.63;15.80;;;11.20;99.90;;;;;;4965036;28;20413;-72
2023/10/18 08:39:09;;;;;;;15.47;13.70;;;11.30;99.90;;;;;;4962559;28;20476;-72
2023/10/18 08:41:44;;;;;;;20.37;13.70;;;11.40;99.90;;;;;;4962111;28;20551;-72
2023/10/18 08:44:19;;;;;;;23.70;17.47;;;11.50;99.90;;;;;;4961321;28;20520;-72
2023/10/18 08:46:52;;;;;;;22.27;17.53;;;11.50;99.90;;;;;;4962853;28;21054;-72
2023/10/18 08:49:22;;;;;;;40.50;27.50;;;11.60;99.90;;;;;;4964342;28;20410;-72
2023/10/18 08:51:56;;;;;;;17.20;14.07;;;11.70;99.90;;;;;;4968773;28;20445;-72
2023/10/18 08:54:23;;;;;;;18.00;15.57;;;11.80;99.90;;;;;;4971055;28;20512;-72
2023/10/18 08:56:51;;;;;;;17.43;14.67;;;11.90;99.90;;;;;;4970905;28;20453;-72
2023/10/18 08:59:20;;;;;;;16.20;13.97;;;12.00;99.90;;;;;;4963926;28;20481;-72
2023/10/18 09:04:35;;;;;;;17.77;13.53;;;12.10;99.90;;;;;;4966978;28;20480;-72
2023/10/18 09:07:18;;;;;;;15.47;13.90;;;12.20;99.90;;;;;;4967850;28;20517;-72
2023/10/18 09:09:57;;;;;;;15.80;13.30;;;12.30;99.90;;;;;;4965398;28;20509;-72
2023/10/18 09:13:08;;;;;;;18.67;14.40;;;12.40;99.90;;;;;;4965679;28;20783;-72
2023/10/18 09:15:29;;;;;;;14.50;12.13;;;12.40;99.90;;;;;;4960824;28;20564;-72
2023/10/18 09:17:56;;;;;;;18.83;14.20;;;12.40;99.90;;;;;;4963767;28;20485;-71
2023/10/18 09:20:26;;;;;;;14.53;13.03;;;12.50;99.90;;;;;;4964142;28;20578;-72
2023/10/18 09:22:53;;;;;;;18.40;12.70;;;12.50;99.90;;;;;;4962987;28;20450;-72
2023/10/18 09:25:23;;;;;;;15.40;13.70;;;12.50;99.90;;;;;;4962738;28;20920;-72
2023/10/18 09:27:52;;;;;;;14.03;12.57;;;12.50;99.90;;;;;;4962714;28;20422;-71
2023/10/18 09:30:18;;;;;;;17.87;12.93;;;12.60;99.90;;;;;;4961015;28;20433;-72
2023/10/18 09:32:47;;;;;;;15.00;13.40;;;12.60;99.90;;;;;;4965234;28;20442;-71
2023/10/18 09:35:13;;;;;;;18.23;13.20;;;12.70;99.90;;;;;;4961606;28;20436;-71
2023/10/18 09:37:39;;;;;;;15.33;13.17;;;12.70;99.90;;;;;;4960097;28;20445;-72
2023/10/18 09:40:06;;;;;;;17.00;12.90;;;12.70;99.90;;;;;;4962256;28;20473;-71
2023/10/18 09:42:31;;;;;;;16.60;12.27;;;12.80;99.90;;;;;;4963267;28;20205;-71
2023/10/18 09:44:59;;;;;;;16.37;13.03;;;12.90;99.90;;;;;;4960875;28;20807;-71
2023/10/18 09:47:26;;;;;;;14.20;12.67;;;12.90;99.90;;;;;;4960912;28;20174;-71
2023/10/18 09:49:56;;;;;;;20.13;13.50;;;13.00;99.90;;;;;;4956365;28;20563;-71
2023/10/18 09:52:24;;;;;;;13.97;12.43;;;13.20;99.90;;;;;;4963467;28;20460;-71
2023/10/18 09:54:50;;;;;;;13.67;12.00;;;13.30;99.90;;;;;;4960095;28;20520;-71
2023/10/18 09:57:23;;;;;;;13.93;11.60;;;13.40;99.90;;;;;;4960719;28;20430;-71
2023/10/18 09:59:54;;;;;;;12.63;11.00;;;13.60;99.90;;;;;;4958563;28;20465;-71
2023/10/18 10:02:21;;;;;;;14.80;12.77;;;13.70;99.90;;;;;;4970153;28;20589;-71
2023/10/18 10:04:52;;;;;;;12.87;11.50;;;13.90;99.90;;;;;;4965408;28;20473;-72
2023/10/18 10:07:27;;;;;;;16.53;12.30;;;14.00;99.90;;;;;;4959389;28;20422;-71
2023/10/18 10:10:09;;;;;;;17.23;12.70;;;14.10;99.90;;;;;;4959753;28;20884;-71
2023/10/18 10:12:35;;;;;;;15.90;11.93;;;14.20;99.90;;;;;;4968602;28;20458;-71
2023/10/18 10:15:04;;;;;;;17.50;11.80;;;14.30;99.90;;;;;;4963053;28;20436;-71
2023/10/18 10:17:31;;;;;;;15.27;13.20;;;14.50;99.90;;;;;;4963501;28;20453;-72
2023/10/18 10:20:15;;;;;;;16.33;13.13;;;14.50;99.90;;;;;;4962454;28;20473;-71
2023/10/18 10:22:44;;;;;;;12.43;11.13;;;14.70;99.90;;;;;;4960430;28;20903;-71
2023/10/18 10:25:18;;;;;;;12.67;11.37;;;14.70;99.90;;;;;;4961637;28;20425;-72
2023/10/18 10:27:49;;;;;;;12.97;11.50;;;14.80;99.90;;;;;;4958502;28;20434;-71
2023/10/18 10:32:45;;;;;;;12.87;11.43;;;15.00;99.90;;;;;;4965524;28;20827;-71
2023/10/18 10:35:15;;;;;;;14.10;12.07;;;15.00;99.90;;;;;;4965563;28;20425;-72
2023/10/18 10:37:52;;;;;;;14.23;11.80;;;15.00;99.90;;;;;;4965041;28;20426;-71
2023/10/18 10:43:08;;;;;;;51.57;19.10;;;14.80;99.90;;;;;;4964489;28;20755;-72
2023/10/18 10:45:43;;;;;;;14.23;11.20;;;14.70;99.90;;;;;;4961188;28;20449;-72
2023/10/18 10:48:18;;;;;;;13.33;11.63;;;14.70;99.90;;;;;;4961624;28;20557;-71
2023/10/18 10:50:53;;;;;;;18.80;14.10;;;14.70;99.90;;;;;;4963880;28;20425;-71
2023/10/18 10:53:32;;;;;;;15.43;11.73;;;14.70;99.90;;;;;;4964766;28;20456;-72
2023/10/18 10:56:27;;;;;;;14.23;11.60;;;14.60;99.90;;;;;;4965165;28;20675;-70
2023/10/18 10:59:03;;;;;;;13.50;11.97;;;14.60;99.90;;;;;;4955657;28;20426;-71
2023/10/18 11:01:43;;;;;;;13.67;12.20;;;14.50;99.90;;;;;;4963645;28;20441;-71
2023/10/18 11:04:28;;;;;;;14.60;12.20;;;14.50;99.90;;;;;;4970603;28;20473;-71
2023/10/18 11:07:04;;;;;;;17.20;13.00;;;14.60;99.90;;;;;;4963946;28;20449;-71
2023/10/18 11:09:34;;;;;;;16.30;12.07;;;14.70;99.90;;;;;;4963471;28;20440;-71
2023/10/18 11:12:08;;;;;;;22.83;12.27;;;14.70;99.90;;;;;;4964843;28;20804;-70
2023/10/18 11:14:37;;;;;;;14.97;12.30;;;14.70;99.90;;;;;;4963009;28;20421;-70
2023/10/18 11:17:09;;;;;;;18.63;12.50;;;14.80;99.90;;;;;;4962099;28;20438;-71
2023/10/18 11:19:40;;;;;;;15.17;12.90;;;14.80;99.90;;;;;;4965996;28;20472;-71
2023/10/18 11:22:07;;;;;;;16.53;11.90;;;14.90;99.90;;;;;;4965053;28;20457;-71
2023/10/18 11:24:33;;;;;;;15.60;12.47;;;15.00;99.90;;;;;;4964976;28;20955;-71
2023/10/18 11:26:59;;;;;;;12.23;10.93;;;15.10;99.90;;;;;;4964346;28;20496;-71
2023/10/18 11:29:25;;;;;;;15.03;12.63;;;15.20;99.90;;;;;;4962119;28;20438;-71
2023/10/18 11:31:55;;;;;;;14.27;12.77;;;15.20;99.90;;;;;;4960797;28;20186;-71
2023/10/18 11:34:27;;;;;;;41.07;16.97;;;15.30;99.90;;;;;;4965018;28;20730;-71
2023/10/18 11:37:01;;;;;;;15.73;11.87;;;15.40;99.90;;;;;;4964434;28;20924;-70
2023/10/18 11:39:32;;;;;;;20.30;12.43;;;15.50;99.90;;;;;;4960832;28;20522;-71
2023/10/18 11:41:59;;;;;;;12.40;11.13;;;15.50;99.90;;;;;;4961628;28;20497;-71
2023/10/18 11:44:34;;;;;;;82.80;24.70;;;15.60;99.90;;;;;;4962597;28;20413;-71
2023/10/18 11:47:21;;;;;;;25.67;13.63;;;15.60;99.90;;;;;;4964858;28;20954;-70
2023/10/18 11:49:57;;;;;;;15.53;13.10;;;15.60;99.90;;;;;;4963622;28;20517;-71
2023/10/18 11:52:23;;;;;;;29.73;15.30;;;15.60;99.90;;;;;;4966969;28;20445;-70
2023/10/18 11:55:00;;;;;;;24.00;16.50;;;15.60;99.90;;;;;;4963889;28;20437;-71
2023/10/18 11:57:30;;;;;;;25.10;16.40;;;15.70;99.90;;;;;;4964790;28;20571;-71
2023/10/18 12:00:20;;;;;;;14.13;12.00;;;15.70;99.90;;;;;;4955127;28;21187;-71
2023/10/18 12:02:44;;;;;;;15.93;12.13;;;15.80;99.90;;;;;;4960927;28;20556;-72
2023/10/18 12:05:14;;;;;;;17.23;12.60;;;15.80;99.90;;;;;;4960135;28;20469;-71
2023/10/18 12:07:44;;;;;;;21.90;15.03;;;15.80;99.90;;;;;;4965032;28;20422;-72
2023/10/18 12:10:16;;;;;;;14.00;12.00;;;15.80;99.90;;;;;;4961563;28;20987;-72
2023/10/18 12:12:42;;;;;;;12.47;11.27;;;15.90;99.90;;;;;;4963795;28;20473;-71
2023/10/18 12:15:09;;;;;;;15.50;11.47;;;16.00;99.90;;;;;;4961679;28;20438;-71
2023/10/18 12:17:34;;;;;;;14.40;11.07;;;16.00;99.90;;;;;;4964058;28;20544;-71
2023/10/18 12:20:00;;;;;;;16.60;12.10;;;16.00;99.90;;;;;;4963686;28;20465;-71
2023/10/18 12:22:25;;;;;;;13.37;11.40;;;16.20;99.90;;;;;;4964852;28;20321;-71
2023/10/18 12:24:51;;;;;;;12.47;10.33;;;16.40;99.90;;;;;;4963653;28;20271;-72
2023/10/18 12:27:35;;;;;;;14.00;11.10;;;16.70;99.90;;;;;;4961963;28;20547;-71
2023/10/18 12:32:51;;;;;;;17.47;11.30;;;16.90;99.90;;;;;;4935908;28;20516;-69
2023/10/18 12:35:20;;;;;;;21.73;14.80;;;16.90;99.90;;;;;;4962622;28;20433;-69
2023/10/18 12:37:51;;;;;;;12.83;11.03;;;16.90;99.90;;;;;;4963767;28;20423;-70
2023/10/18 12:40:28;;;;;;;13.30;10.43;;;16.90;99.90;;;;;;4961915;28;20578;-70
2023/10/18 12:43:05;;;;;;;12.80;10.67;;;16.80;99.90;;;;;;4959502;28;20457;-70
2023/10/18 12:45:42;;;;;;;17.60;10.40;;;16.70;99.90;;;;;;4958948;28;20430;-71
2023/10/18 12:48:11;;;;;;;14.63;10.20;;;16.60;99.90;;;;;;4963520;28;20564;-71
2023/10/18 12:50:38;;;;;;;21.13;11.03;;;16.50;99.90;;;;;;4963967;28;20525;-71
2023/10/18 12:53:17;;;;;;;11.07;9.93;;;16.40;99.90;;;;;;4962671;28;20540;-70
2023/10/18 12:55:44;;;;;;;12.60;10.53;;;16.40;99.90;;;;;;4965002;28;20669;-70
2023/10/18 12:58:10;;;;;;;15.97;11.40;;;16.30;99.90;;;;;;4954796;28;20438;-72
2023/10/18 13:00:46;;;;;;;12.63;10.03;;;16.20;99.90;;;;;;4964168;28;20480;-72
2023/10/18 13:05:43;;;;;;;12.77;11.13;;;16.10;99.90;;;;;;4962791;28;20477;-71
2023/10/18 13:08:16;;;;;;;14.10;10.97;;;16.00;99.90;;;;;;4963270;28;20191;-71
2023/10/18 13:10:59;;;;;;;13.23;11.30;;;15.90;99.90;;;;;;4963413;28;20492;-71
2023/10/18 13:13:30;;;;;;;15.47;10.27;;;15.80;99.90;;;;;;4962366;28;20449;-71
2023/10/18 13:15:57;;;;;;;15.40;10.77;;;15.80;99.90;;;;;;4962021;28;20445;-71
2023/10/18 13:18:26;;;;;;;17.97;10.60;;;15.70;99.90;;;;;;4963711;28;20432;-71
2023/10/18 13:20:55;;;;;;;12.57;10.50;;;15.60;99.90;;;;;;4963453;28;20473;-71
2023/10/18 13:23:27;;;;;;;12.50;9.70;;;15.50;99.90;;;;;;4962011;28;20509;-71
2023/10/18 13:25:54;;;;;;;13.30;10.80;;;15.50;99.90;;;;;;4964167;28;20549;-71
2023/10/18 13:31:07;;;;;;;13.70;10.47;;;15.50;99.90;;;;;;4967073;28;20869;-71
2023/10/18 13:33:38;;;;;;;14.03;10.57;;;15.50;99.90;;;;;;4962324;28;20457;-70
2023/10/18 13:36:08;;;;;;;15.53;10.10;;;15.50;99.90;;;;;;4959298;28;20955;-70
2023/10/18 13:38:35;;;;;;;12.00;9.70;;;15.50;99.90;;;;;;4960687;28;20927;-71
2023/10/18 13:41:01;;;;;;;11.50;9.20;;;15.40;99.90;;;;;;4962158;28;20897;-72